Terminal Aerodrome Forecast
Issued by NWS Cleveland, OH

Home | Current Version | Previous Version | Graphics & Text | Print | Product List | Glossary Off
Versions: 1 2 3 4 5 6 7 8 9 10 11 12 13 14 15 16 17 18 19 20 21 22

000
FTUS41 KCLE 011600 AAC
TAFTOL
TAF AMD
KTOL 011606Z 0116/0212 05005KT P6SM SCT025 BKN035
      TEMPO 0116/0118 BKN025
     FM020000 07003KT P6SM SKC
     FM020700 09003KT 3SM BR SCT003
     FM020900 10003KT 2SM BR SCT003=

USA.gov is the U.S. government's official web portal to all federal, state and local government web resources and services.